Time,TemperatureF,DewpointF,PressureIn,WindDirection,WindDirectionDegrees,WindSpeedMPH,WindSpeedGustMPH,Humidity,HourlyPrecipIn,Conditions,Clouds,dailyrainin,SoftwareType,DateUTC
2013-08-04 00:33:00,55.0,-99.9,29.98,SSW,209,11.0,15.0,-999,-99.99,,,-99.99,,2013-08-04 07:33:00,
2013-08-04 00:43:00,55.0,-99.9,29.98,SSW,209,11.0,15.0,-999,-99.99,,,-99.99,,2013-08-04 07:43:00,
2013-08-04 00:53:00,55.0,-99.9,29.98,SSW,209,11.0,15.0,-999,-99.99,,,-99.99,,2013-08-04 07:53:00,
2013-08-04 01:02:00,55.0,-99.9,29.98,SW,220,13.0,16.0,-999,-99.99,,,-99.99,,2013-08-04 08:02:00,
2013-08-04 01:23:00,55.0,-99.9,29.98,SW,220,11.0,17.0,-999,-99.99,,,-99.99,,2013-08-04 08:23:00,
2013-08-04 01:33:00,55.0,-99.9,29.98,SW,221,11.0,15.0,-999,-99.99,,,-99.99,,2013-08-04 08:33:00,
2013-08-04 01:43:00,55.0,-99.9,29.98,SW,226,11.0,14.0,-999,-99.99,,,-99.99,,2013-08-04 08:43:00,
2013-08-04 01:53:00,55.0,-99.9,29.98,SW,229,11.0,16.0,-999,-99.99,,,-99.99,,2013-08-04 08:53:00,
2013-08-04 02:02:00,55.0,-99.9,29.98,SW,227,11.0,13.0,-999,-99.99,,,-99.99,,2013-08-04 09:02:00,
2013-08-04 02:32:00,55.0,-99.9,29.98,SW,221,11.0,16.0,-999,-99.99,,,-99.99,,2013-08-04 09:32:00,
2013-08-04 03:22:00,55.0,-99.9,29.98,SW,227,13.0,16.0,-999,-99.99,,,-99.99,,2013-08-04 10:22:00,
2013-08-04 03:32:00,55.0,-99.9,29.98,SW,227,13.0,16.0,-999,-99.99,,,-99.99,,2013-08-04 10:32:00,
2013-08-04 03:53:00,55.0,-99.9,29.98,SW,217,11.0,18.0,-999,-99.99,,,-99.99,,2013-08-04 10:53:00,
2013-08-04 04:22:00,55.0,-99.9,29.98,SW,229,11.0,13.0,-999,-99.99,,,-99.99,,2013-08-04 11:22:00,
2013-08-04 04:32:00,55.0,-99.9,29.98,SW,224,10.0,15.0,-999,-99.99,,,-99.99,,2013-08-04 11:32:00,
2013-08-04 04:42:00,55.0,-99.9,29.98,SW,224,10.0,15.0,-999,-99.99,,,-99.99,,2013-08-04 11:42:00,
2013-08-04 04:53:00,55.0,-99.9,29.99,SW,227,12.0,15.0,-999,-99.99,,,-99.99,,2013-08-04 11:53:00,
2013-08-04 05:02:00,55.0,-99.9,29.99,SW,228,11.0,15.0,-999,-99.99,,,-99.99,,2013-08-04 12:02:00,
2013-08-04 05:13:00,56.0,-99.9,29.99,SW,228,10.0,14.0,-999,-99.99,,,-99.99,,2013-08-04 12:13:00,
2013-08-04 05:32:00,55.0,-99.9,29.99,SW,230,12.0,16.0,-999,-99.99,,,-99.99,,2013-08-04 12:32:00,
2013-08-04 05:43:00,55.0,-99.9,29.99,SW,230,12.0,16.0,-999,-99.99,,,-99.99,,2013-08-04 12:43:00,
2013-08-04 05:53:00,56.0,-99.9,29.99,SSW,200,10.0,15.0,-999,-99.99,,,-99.99,,2013-08-04 12:53:00,
2013-08-04 06:02:00,56.0,-99.9,29.99,SSW,200,10.0,15.0,-999,-99.99,,,-99.99,,2013-08-04 13:02:00,
2013-08-04 06:13:00,56.0,-99.9,29.99,SSW,200,10.0,15.0,-999,-99.99,,,-99.99,,2013-08-04 13:13:00,
2013-08-04 06:22:00,56.0,-99.9,29.99,SSW,200,10.0,15.0,-999,-99.99,,,-99.99,,2013-08-04 13:22:00,
2013-08-04 07:02:00,55.0,-99.9,30.01,SSW,199,13.0,17.0,-999,-99.99,,,-99.99,,2013-08-04 14:02:00,
2013-08-04 07:22:00,56.0,-99.9,30.00,SW,216,9.0,16.0,-999,-99.99,,,-99.99,,2013-08-04 14:22:00,
2013-08-04 07:53:00,56.0,-99.9,30.01,SW,228,12.0,15.0,-999,-99.99,,,-99.99,,2013-08-04 14:53:00,
2013-08-04 08:22:00,56.0,-99.9,30.01,SSW,195,12.0,16.0,-999,-99.99,,,-99.99,,2013-08-04 15:22:00,
2013-08-04 09:02:00,56.0,-99.9,30.01,SW,216,11.0,16.0,-999,-99.99,,,-99.99,,2013-08-04 16:02:00,
2013-08-04 09:12:00,56.0,-99.9,30.02,SSW,210,9.0,15.0,-999,-99.99,,,-99.99,,2013-08-04 16:12:00,
2013-08-04 09:22:00,56.0,-99.9,30.02,SSW,210,9.0,15.0,-999,-99.99,,,-99.99,,2013-08-04 16:22:00,
2013-08-04 09:33:00,56.0,-99.9,30.02,SSW,210,9.0,15.0,-999,-99.99,,,-99.99,,2013-08-04 16:33:00,
2013-08-04 09:43:00,56.0,-99.9,30.02,SW,224,11.0,16.0,-999,-99.99,,,-99.99,,2013-08-04 16:43:00,
2013-08-04 09:53:00,56.0,-99.9,30.02,SW,224,11.0,16.0,-999,-99.99,,,-99.99,,2013-08-04 16:53:00,
2013-08-04 10:32:00,56.0,-99.9,30.02,SW,223,12.0,15.0,-999,-99.99,,,-99.99,,2013-08-04 17:32:00,
2013-08-04 10:53:00,56.0,-99.9,30.02,SW,224,11.0,16.0,-999,-99.99,,,-99.99,,2013-08-04 17:53:00,
2013-08-04 11:23:00,56.0,-99.9,30.02,SW,221,12.0,17.0,-999,-99.99,,,-99.99,,2013-08-04 18:23:00,
2013-08-04 11:52:00,56.0,-99.9,30.03,SW,223,13.0,16.0,-999,-99.99,,,-99.99,,2013-08-04 18:52:00,
2013-08-04 12:12:00,56.0,-99.9,30.03,SW,216,11.0,15.0,-999,-99.99,,,-99.99,,2013-08-04 19:12:00,
2013-08-04 12:33:00,56.0,-99.9,30.03,SW,220,11.0,16.0,-999,-99.99,,,-99.99,,2013-08-04 19:33:00,
2013-08-04 12:43:00,56.0,-99.9,30.02,SW,223,13.0,17.0,-999,-99.99,,,-99.99,,2013-08-04 19:43:00,
2013-08-04 12:53:00,56.0,-99.9,30.03,SW,221,12.0,17.0,-999,-99.99,,,-99.99,,2013-08-04 19:53:00,
2013-08-04 13:13:00,57.0,-99.9,30.02,SW,223,14.0,18.0,-999,-99.99,,,-99.99,,2013-08-04 20:13:00,
2013-08-04 13:33:00,56.0,-99.9,30.02,SW,222,14.0,19.0,-999,-99.99,,,-99.99,,2013-08-04 20:33:00,
2013-08-04 13:53:00,57.0,-99.9,30.02,SW,221,14.0,18.0,-999,-99.99,,,-99.99,,2013-08-04 20:53:00,
2013-08-04 14:02:00,57.0,-99.9,30.01,SW,223,15.0,20.0,-999,-99.99,,,-99.99,,2013-08-04 21:02:00,
2013-08-04 14:12:00,57.0,-99.9,30.01,SW,223,15.0,20.0,-999,-99.99,,,-99.99,,2013-08-04 21:12:00,
2013-08-04 14:22:00,57.0,-99.9,30.01,SW,223,15.0,20.0,-999,-99.99,,,-99.99,,2013-08-04 21:22:00,
2013-08-04 14:32:00,57.0,-99.9,30.01,SW,223,15.0,20.0,-999,-99.99,,,-99.99,,2013-08-04 21:32:00,
2013-08-04 14:53:00,56.0,-99.9,30.00,SW,223,18.0,23.0,-999,-99.99,,,-99.99,,2013-08-04 21:53:00,
2013-08-04 15:32:00,57.0,-99.9,29.99,SW,218,13.0,19.0,-999,-99.99,,,-99.99,,2013-08-04 22:32:00,
2013-08-04 15:53:00,57.0,-99.9,29.98,SW,219,15.0,21.0,-999,-99.99,,,-99.99,,2013-08-04 22:53:00,
2013-08-04 16:02:00,57.0,-99.9,29.98,SSW,212,13.0,20.0,-999,-99.99,,,-99.99,,2013-08-04 23:02:00,
2013-08-04 16:12:00,57.0,-99.9,29.98,SSW,209,14.0,21.0,-999,-99.99,,,-99.99,,2013-08-04 23:12:00,
2013-08-04 16:23:00,56.0,-99.9,29.98,SSW,204,17.0,22.0,-999,-99.99,,,-99.99,,2013-08-04 23:23:00,
2013-08-04 16:43:00,58.0,-99.9,29.97,SW,219,15.0,22.0,-999,-99.99,,,-99.99,,2013-08-04 23:43:00,
2013-08-04 16:53:00,58.0,-99.9,29.97,SW,219,15.0,22.0,-999,-99.99,,,-99.99,,2013-08-04 23:53:00,
2013-08-04 17:12:00,58.0,-99.9,-100.00,North,-999,-999.0,-999.0,-999,-99.99,,,-99.99,,2013-08-05 00:12:00,
2013-08-04 17:22:00,57.0,-99.9,29.97,SW,215,13.0,19.0,-999,-99.99,,,-99.99,,2013-08-05 00:22:00,
2013-08-04 17:33:00,58.0,-99.9,29.97,SSW,208,11.0,17.0,-999,-99.99,,,-99.99,,2013-08-05 00:33:00,
2013-08-04 17:42:00,58.0,-99.9,29.98,SSW,213,6.0,15.0,-999,-99.99,,,-99.99,,2013-08-05 00:42:00,
2013-08-04 17:53:00,58.0,-99.9,29.98,SSW,213,6.0,15.0,-999,-99.99,,,-99.99,,2013-08-05 00:53:00,
2013-08-04 18:22:00,59.0,-99.9,29.98,SSW,207,6.0,11.0,-999,-99.99,,,-99.99,,2013-08-05 01:22:00,
2013-08-04 18:52:00,60.0,-99.9,29.97,SSW,197,8.0,10.0,-999,-99.99,,,-99.99,,2013-08-05 01:52:00,
2013-08-04 19:12:00,60.0,-99.9,29.98,SSW,203,6.0,9.0,-999,-99.99,,,-99.99,,2013-08-05 02:12:00,
2013-08-04 19:22:00,60.0,-99.9,29.98,SW,230,10.0,11.0,-999,-99.99,,,-99.99,,2013-08-05 02:22:00,
2013-08-04 19:33:00,60.0,-99.9,29.98,SW,230,10.0,11.0,-999,-99.99,,,-99.99,,2013-08-05 02:33:00,
2013-08-04 19:43:00,60.0,-99.9,29.98,SW,233,11.0,14.0,-999,-99.99,,,-99.99,,2013-08-05 02:43:00,
2013-08-04 19:53:00,60.0,-99.9,29.98,SW,233,11.0,14.0,-999,-99.99,,,-99.99,,2013-08-05 02:53:00,
2013-08-04 20:00:00,59.0,-99.9,29.98,WSW,243,15.0,19.0,-999,-99.99,,,-99.99,,2013-08-05 03:00:00,
2013-08-04 20:02:00,60.0,-99.9,29.98,SW,233,11.0,14.0,-999,-99.99,,,-99.99,,2013-08-05 03:02:00,
2013-08-04 20:32:00,59.0,-99.9,29.98,WSW,243,15.0,19.0,-999,-99.99,,,-99.99,,2013-08-05 03:32:00,
2013-08-04 20:42:00,59.0,-99.9,29.98,WSW,243,15.0,19.0,-999,-99.99,,,-99.99,,2013-08-05 03:42:00,
2013-08-04 20:53:00,59.0,-99.9,29.98,WSW,243,15.0,19.0,-999,-99.99,,,-99.99,,2013-08-05 03:53:00,
2013-08-04 21:22:00,59.0,-99.9,30.00,WSW,246,11.0,15.0,-999,-99.99,,,-99.99,,2013-08-05 04:22:00,
2013-08-04 21:32:00,58.0,-99.9,30.01,WSW,249,11.0,15.0,-999,-99.99,,,-99.99,,2013-08-05 04:32:00,
2013-08-04 21:43:00,58.0,-99.9,30.01,WSW,243,11.0,16.0,-999,-99.99,,,-99.99,,2013-08-05 04:43:00,
2013-08-04 21:52:00,58.0,-99.9,30.01,WSW,242,12.0,17.0,-999,-99.99,,,-99.99,,2013-08-05 04:52:00,
2013-08-04 22:22:00,58.0,-99.9,30.02,WSW,241,11.0,14.0,-999,-99.99,,,-99.99,,2013-08-05 05:22:00,
2013-08-04 22:32:00,58.0,-99.9,30.02,WSW,238,8.0,13.0,-999,-99.99,,,-99.99,,2013-08-05 05:32:00,
2013-08-04 22:53:00,58.0,-99.9,30.02,SW,221,7.0,9.0,-999,-99.99,,,-99.99,,2013-08-05 05:53:00,
2013-08-04 23:32:00,57.0,-99.9,30.02,SW,220,9.0,13.0,-999,-99.99,,,-99.99,,2013-08-05 06:32:00,